Fort Wayne (FWA/KFWA)

Map

Destinations

Information

Location
Fort Wayne, IN
Local Time
23:37 / 11:37 pm
GMT Time
03:37 / 3:37 am
Gates
7
No FAA reported delays
METAR KFWA 250254Z 25005KT 10SM FEW070 SCT090 18/11 A3007 RMK AO2 SLP177 T01780106 53022 $
TAF KFWA 242320Z 2500/2524 28009KT P6SM SCT060 FM250800 24006KT P6SM FEW200 FM251400 28012G22KT P6SM SCT040